Flight Track Log - Related Links

Times and Time Zones

All times are in EDT time to prevent confusion due to time zone crossing. See the GLA4X flight status page for this flight to view local times or setup timezone preferences in your user account.

Time Position Orientation Groundspeed Altitude Reporting Facility
EDT Latitude Longitude Course Direction KTS MPH feet Rate Location/Type
Tue 10:21:53 PM 35.5572 -106.0653 151° Southeast 171 197 8,200  Level Albuquerque Center
Tue 10:22:54 PM 35.5186 -105.9925 123° Southeast 202 232 9,600 976 Climbing Albuquerque Center
Tue 10:23:56 PM 35.4839 -105.9358 127° Southeast 214 246 10,200 1,073 Climbing Albuquerque Center
Tue 10:24:00 PM 35.3801 -105.6914 115° Southeast  Level FlightAware Approximate
Tue 10:24:57 PM 35.4464 -105.8494 118° Southeast 238 274 11,800  Level Albuquerque Center
Tue 10:25:00 PM 35.3510 -105.6136 115° Southeast  Level FlightAware Approximate
Tue 10:25:58 PM 35.4200 -105.7736 113° Southeast 241 277 13,000  Level Albuquerque Center
Tue 10:26:00 PM 35.3189 -105.5378 121° Southeast  Level FlightAware Approximate
Tue 10:27:00 PM 35.3881 -105.6986 118° Southeast 243 280 14,100  Level Albuquerque Center
Tue 10:28:01 PM 35.3564 -105.6222 117° Southeast 246 283 15,200 1,033 Climbing Albuquerque Center
Tue 10:29:02 PM 35.3261 -105.5472 116° Southeast 246 283 16,200 1,073 Climbing Albuquerque Center
Tue 10:30:04 PM 35.2972 -105.4719 115° Southeast 243 280 17,400 1,073 Climbing Albuquerque Center
Tue 10:31:05 PM 35.2697 -105.3947 114° Southeast 245 282 18,400 984 Climbing Albuquerque Center
Tue 10:32:06 PM 35.2353 -105.3239 121° Southeast 242 278 19,400 1,171 Climbing Albuquerque Center
Tue 10:33:08 PM 35.1964 -105.2572 126° Southeast 239 275 20,800 1,073 Climbing Albuquerque Center
Tue 10:34:09 PM 35.1681 -105.1803 114° Southeast 246 283 21,600 787 Climbing Albuquerque Center
Tue 10:35:10 PM 35.1450 -105.1006 109° East 247 284 22,400 689 Climbing Albuquerque Center
Tue 10:36:11 PM 35.1114 -105.0264 119° Southeast 246 283 23,000 293 Climbing Albuquerque Center
Tue 10:37:13 PM 35.0856 -104.9406 110° East 263 303 23,000 98 Level Albuquerque Center
Tue 10:38:14 PM 35.0478 -104.8403 115° Southeast 274 315 23,200  Climbing Albuquerque Center
Tue 10:39:15 PM 35.0206 -104.7506 110° East 279 321 23,000 -148 Descending Albuquerque Center
Tue 10:40:16 PM 34.9947 -104.6606 109° East 280 322 22,900  Descending Albuquerque Center
Tue 10:41:17 PM 34.9656 -104.5728 112° Southeast 279 321 23,000 -98 Climbing Albuquerque Center
Tue 10:42:19 PM 34.9339 -104.4844 114° Southeast 281 323 22,700 -585 Descending Albuquerque Center
Tue 10:43:20 PM 34.8969 -104.3953 117° Southeast 290 334 21,800 -836 Descending Albuquerque Center
Tue 10:44:21 PM 34.8669 -104.3061 112° Southeast 287 330 21,000 -738 Descending Albuquerque Center
Tue 10:45:22 PM 34.8358 -104.2156 113° Southeast 287 330 20,300 -811 Descending Albuquerque Center
Tue 10:46:12 PM 34.8064 -104.1394 115° Southeast 293 337 19,500 -848 Descending Albuquerque Center
Tue 10:46:54 PM 34.7828 -104.0722 113° Southeast 298 343 19,000 -575 Descending Albuquerque Center
Tue 10:47:25 PM 34.7669 -104.0325 116° Southeast 297 342 18,800 -590 Descending Albuquerque Center
Tue 10:47:55 PM 34.7450 -103.9772 116° Southeast 296 341 18,400 -590 Descending Albuquerque Center
Tue 10:48:26 PM 34.7319 -103.9422 114° Southeast 295 339 18,200 -800 Descending Albuquerque Center
Tue 10:48:55 PM 34.7183 -103.8878 107° East 294 338 17,600 -787 Descending Albuquerque Center
Tue 10:49:27 PM 34.7078 -103.8472 108° East 293 337 17,400 -689 Descending Albuquerque Center
Tue 10:49:56 PM 34.6925 -103.7903 108° East 293 337 16,900 -787 Descending Albuquerque Center
Tue 10:50:28 PM 34.6783 -103.7356 107° East 294 338 16,600 -600 Descending Albuquerque Center
Tue 10:50:56 PM 34.6694 -103.6975 106° East 292 336 16,300 -1,279 Descending Albuquerque Center
Tue 10:51:29 PM 34.6547 -103.6408 108° East 292 336 15,300 -1,475 Descending Albuquerque Center
Tue 10:51:57 PM 34.6411 -103.5983 111° Southeast 300 345 14,800 -1,610 Descending Albuquerque Center
Tue 10:53:32 PM 34.6083 -103.4392 104° East 309 356 12,000 -1,785 Descending Albuquerque Center
Tue 10:53:58 PM 34.6006 -103.3942 102° East 313 360 11,200 -1,770 Descending Albuquerque Center
Tue 10:54:33 PM 34.5919 -103.3339 100° East 314 361 10,200 -1,770 Descending Albuquerque Center
Tue 10:54:59 PM 34.5761 -103.2942 116° Southeast 293 337 9,400 -1,574 Descending Albuquerque Center
Tue 10:55:34 PM 34.5542 -103.2508 122° Southeast 291 335 8,600 -1,500 Descending Albuquerque Center
Tue 10:55:59 PM 34.5289 -103.2269 142° Southeast 266 306 7,900 -1,377 Descending Albuquerque Center
Tue 10:56:35 PM 34.5078 -103.1914 126° Southeast 258 297 7,200 -1,377 Descending Albuquerque Center
Tue 10:57:00 PM 34.4917 -103.1733 137° Southeast 187 215 6,500 -1,377 Descending Albuquerque Center
Tue 10:57:36 PM 34.4797 -103.1494 121° Southeast 187 215 5,800 -1,075 Descending Albuquerque Center
Tue 10:58:07 PM 34.4625 -103.1306 138° Southeast 156 180 5,300 -290 Descending Albuquerque Center
Tue 10:58:38 PM 34.4506 -103.1039 119° Southeast 175 201 5,500 -900 Climbing Albuquerque Center
Tue 10:59:07 PM 34.4356 -103.0900 143° Southeast 151 174 4,400 -2,276 Descending Albuquerque Center
Tue 11:01:00 PM 34.4266 -103.0776 129° Southeast  Level Estimated

Login

Don't have an account? Register now (free) for customized features, flight alerts, and more!